sensor_id;sensor_type;location;lat;lon;timestamp;P1;durP1;ratioP1;P2;durP2;ratioP2
23747;SDS011;12054;53.662;10.126;2023-08-06T00:01:30;3.47;;;3.08;;
23747;SDS011;12054;53.662;10.126;2023-08-06T00:03:56;3.70;;;2.50;;
23747;SDS011;12054;53.662;10.126;2023-08-06T00:06:21;3.28;;;2.90;;
23747;SDS011;12054;53.662;10.126;2023-08-06T00:08:47;4.13;;;2.67;;
23747;SDS011;12054;53.662;10.126;2023-08-06T00:11:12;5.63;;;3.03;;
23747;SDS011;12054;53.662;10.126;2023-08-06T00:13:38;4.82;;;3.47;;
23747;SDS011;12054;53.662;10.126;2023-08-06T00:16:13;2.97;;;2.70;;
23747;SDS011;12054;53.662;10.126;2023-08-06T00:18:39;4.10;;;2.78;;
23747;SDS011;12054;53.662;10.126;2023-08-06T00:21:05;4.32;;;2.83;;
23747;SDS011;12054;53.662;10.126;2023-08-06T00:23:30;4.05;;;2.67;;
23747;SDS011;12054;53.662;10.126;2023-08-06T00:25:56;2.97;;;2.67;;
23747;SDS011;12054;53.662;10.126;2023-08-06T00:28:21;3.72;;;3.03;;
23747;SDS011;12054;53.662;10.126;2023-08-06T00:30:52;3.28;;;2.95;;
23747;SDS011;12054;53.662;10.126;2023-08-06T00:33:18;4.65;;;3.13;;
23747;SDS011;12054;53.662;10.126;2023-08-06T00:35:44;3.78;;;2.92;;
23747;SDS011;12054;53.662;10.126;2023-08-06T00:38:09;4.85;;;3.47;;
23747;SDS011;12054;53.662;10.126;2023-08-06T00:40:35;4.95;;;2.90;;
23747;SDS011;12054;53.662;10.126;2023-08-06T00:43:00;4.32;;;2.85;;
23747;SDS011;12054;53.662;10.126;2023-08-06T00:45:26;4.40;;;3.13;;
23747;SDS011;12054;53.662;10.126;2023-08-06T00:47:54;4.97;;;2.90;;
23747;SDS011;12054;53.662;10.126;2023-08-06T00:50:20;4.35;;;2.72;;
23747;SDS011;12054;53.662;10.126;2023-08-06T00:52:47;3.60;;;3.22;;
23747;SDS011;12054;53.662;10.126;2023-08-06T00:55:16;4.20;;;3.05;;
23747;SDS011;12054;53.662;10.126;2023-08-06T00:57:42;5.22;;;3.22;;
23747;SDS011;12054;53.662;10.126;2023-08-06T01:00:07;4.53;;;3.25;;
23747;SDS011;12054;53.662;10.126;2023-08-06T01:02:33;4.55;;;3.38;;
23747;SDS011;12054;53.662;10.126;2023-08-06T01:04:59;5.00;;;3.30;;
23747;SDS011;12054;53.662;10.126;2023-08-06T01:12:50;3.35;;;2.80;;
23747;SDS011;12054;53.662;10.126;2023-08-06T01:15:30;4.70;;;3.08;;
23747;SDS011;12054;53.662;10.126;2023-08-06T01:17:59;3.80;;;2.95;;
23747;SDS011;12054;53.662;10.126;2023-08-06T01:20:29;4.25;;;3.17;;
23747;SDS011;12054;53.662;10.126;2023-08-06T01:22:55;5.60;;;3.60;;
23747;SDS011;12054;53.662;10.126;2023-08-06T01:25:20;6.18;;;3.33;;
23747;SDS011;12054;53.662;10.126;2023-08-06T01:27:53;3.88;;;3.17;;
23747;SDS011;12054;53.662;10.126;2023-08-06T01:30:25;5.25;;;3.30;;
23747;SDS011;12054;53.662;10.126;2023-08-06T01:32:56;4.45;;;3.38;;
23747;SDS011;12054;53.662;10.126;2023-08-06T01:35:24;4.78;;;3.95;;
23747;SDS011;12054;53.662;10.126;2023-08-06T01:37:51;4.20;;;3.13;;
23747;SDS011;12054;53.662;10.126;2023-08-06T01:40:17;6.10;;;3.80;;
23747;SDS011;12054;53.662;10.126;2023-08-06T01:42:42;4.78;;;3.58;;
23747;SDS011;12054;53.662;10.126;2023-08-06T01:45:08;4.07;;;3.30;;
23747;SDS011;12054;53.662;10.126;2023-08-06T01:47:34;4.00;;;3.42;;
23747;SDS011;12054;53.662;10.126;2023-08-06T01:50:00;4.63;;;3.55;;
23747;SDS011;12054;53.662;10.126;2023-08-06T01:52:26;5.57;;;3.60;;
23747;SDS011;12054;53.662;10.126;2023-08-06T01:54:52;4.18;;;3.53;;
23747;SDS011;12054;53.662;10.126;2023-08-06T01:57:17;4.43;;;3.60;;
23747;SDS011;12054;53.662;10.126;2023-08-06T01:59:43;3.97;;;3.15;;
23747;SDS011;12054;53.662;10.126;2023-08-06T02:02:08;5.85;;;3.53;;
23747;SDS011;12054;53.662;10.126;2023-08-06T02:04:34;5.07;;;3.55;;
23747;SDS011;12054;53.662;10.126;2023-08-06T02:06:59;5.63;;;3.72;;
23747;SDS011;12054;53.662;10.126;2023-08-06T02:09:25;4.45;;;3.85;;
23747;SDS011;12054;53.662;10.126;2023-08-06T02:11:50;4.45;;;3.75;;
23747;SDS011;12054;53.662;10.126;2023-08-06T02:14:16;4.57;;;3.58;;
23747;SDS011;12054;53.662;10.126;2023-08-06T02:16:42;5.97;;;3.55;;
23747;SDS011;12054;53.662;10.126;2023-08-06T02:19:07;7.20;;;3.70;;
23747;SDS011;12054;53.662;10.126;2023-08-06T02:21:33;4.25;;;3.78;;
23747;SDS011;12054;53.662;10.126;2023-08-06T02:23:58;5.15;;;3.60;;
23747;SDS011;12054;53.662;10.126;2023-08-06T02:26:23;4.72;;;3.83;;
23747;SDS011;12054;53.662;10.126;2023-08-06T02:28:49;5.78;;;3.45;;
23747;SDS011;12054;53.662;10.126;2023-08-06T02:31:15;4.15;;;3.60;;
23747;SDS011;12054;53.662;10.126;2023-08-06T02:33:40;4.55;;;3.80;;
23747;SDS011;12054;53.662;10.126;2023-08-06T02:36:06;4.32;;;3.80;;
23747;SDS011;12054;53.662;10.126;2023-08-06T02:38:31;4.72;;;3.70;;
23747;SDS011;12054;53.662;10.126;2023-08-06T02:40:57;4.00;;;3.60;;
23747;SDS011;12054;53.662;10.126;2023-08-06T02:43:23;5.10;;;3.95;;
23747;SDS011;12054;53.662;10.126;2023-08-06T02:45:49;7.80;;;3.80;;
23747;SDS011;12054;53.662;10.126;2023-08-06T02:48:14;7.18;;;4.05;;
23747;SDS011;12054;53.662;10.126;2023-08-06T02:50:40;4.93;;;3.70;;
23747;SDS011;12054;53.662;10.126;2023-08-06T02:53:09;4.40;;;3.75;;
23747;SDS011;12054;53.662;10.126;2023-08-06T02:55:35;6.13;;;3.97;;
23747;SDS011;12054;53.662;10.126;2023-08-06T02:58:01;7.15;;;4.00;;
23747;SDS011;12054;53.662;10.126;2023-08-06T03:00:27;4.35;;;3.80;;
23747;SDS011;12054;53.662;10.126;2023-08-06T03:02:53;6.60;;;3.95;;
23747;SDS011;12054;53.662;10.126;2023-08-06T03:05:18;6.45;;;3.97;;
23747;SDS011;12054;53.662;10.126;2023-08-06T03:07:44;5.90;;;4.03;;
23747;SDS011;12054;53.662;10.126;2023-08-06T03:10:10;5.78;;;3.92;;
23747;SDS011;12054;53.662;10.126;2023-08-06T03:12:35;6.90;;;4.03;;
23747;SDS011;12054;53.662;10.126;2023-08-06T03:15:01;4.40;;;3.40;;
23747;SDS011;12054;53.662;10.126;2023-08-06T03:17:26;8.38;;;3.63;;
23747;SDS011;12054;53.662;10.126;2023-08-06T03:19:52;4.97;;;3.92;;
23747;SDS011;12054;53.662;10.126;2023-08-06T03:22:17;5.10;;;3.95;;
23747;SDS011;12054;53.662;10.126;2023-08-06T03:24:43;8.68;;;4.03;;
23747;SDS011;12054;53.662;10.126;2023-08-06T03:27:08;5.15;;;3.42;;
23747;SDS011;12054;53.662;10.126;2023-08-06T03:29:34;6.32;;;3.83;;
23747;SDS011;12054;53.662;10.126;2023-08-06T03:31:59;5.20;;;3.75;;
23747;SDS011;12054;53.662;10.126;2023-08-06T03:34:25;9.23;;;5.35;;
23747;SDS011;12054;53.662;10.126;2023-08-06T03:36:50;4.63;;;3.78;;
23747;SDS011;12054;53.662;10.126;2023-08-06T03:39:16;6.57;;;3.70;;
23747;SDS011;12054;53.662;10.126;2023-08-06T03:41:41;4.55;;;4.05;;
23747;SDS011;12054;53.662;10.126;2023-08-06T03:44:07;5.43;;;4.00;;
23747;SDS011;12054;53.662;10.126;2023-08-06T03:46:32;4.68;;;3.50;;
23747;SDS011;12054;53.662;10.126;2023-08-06T03:48:59;5.72;;;4.05;;
23747;SDS011;12054;53.662;10.126;2023-08-06T03:51:25;5.15;;;3.92;;
23747;SDS011;12054;53.662;10.126;2023-08-06T03:53:50;4.75;;;3.60;;
23747;SDS011;12054;53.662;10.126;2023-08-06T03:56:16;7.63;;;4.05;;
23747;SDS011;12054;53.662;10.126;2023-08-06T03:58:41;5.53;;;3.40;;
23747;SDS011;12054;53.662;10.126;2023-08-06T04:01:07;4.93;;;3.70;;
23747;SDS011;12054;53.662;10.126;2023-08-06T04:03:32;4.35;;;3.88;;
23747;SDS011;12054;53.662;10.126;2023-08-06T04:05:58;6.72;;;4.15;;
23747;SDS011;12054;53.662;10.126;2023-08-06T04:08:23;5.70;;;4.07;;
23747;SDS011;12054;53.662;10.126;2023-08-06T04:10:49;6.20;;;3.97;;
23747;SDS011;12054;53.662;10.126;2023-08-06T04:13:16;5.63;;;3.72;;
23747;SDS011;12054;53.662;10.126;2023-08-06T04:15:41;5.57;;;3.60;;
23747;SDS011;12054;53.662;10.126;2023-08-06T04:18:07;8.10;;;4.10;;
23747;SDS011;12054;53.662;10.126;2023-08-06T04:20:32;6.80;;;3.63;;
23747;SDS011;12054;53.662;10.126;2023-08-06T04:22:58;7.63;;;4.03;;
23747;SDS011;12054;53.662;10.126;2023-08-06T04:25:23;6.25;;;4.05;;
23747;SDS011;12054;53.662;10.126;2023-08-06T04:27:49;6.90;;;4.28;;
23747;SDS011;12054;53.662;10.126;2023-08-06T04:30:15;7.03;;;3.83;;
23747;SDS011;12054;53.662;10.126;2023-08-06T04:32:40;5.40;;;4.15;;
23747;SDS011;12054;53.662;10.126;2023-08-06T04:35:06;6.22;;;4.00;;
23747;SDS011;12054;53.662;10.126;2023-08-06T04:37:32;5.10;;;3.88;;
23747;SDS011;12054;53.662;10.126;2023-08-06T04:39:57;9.48;;;3.95;;
23747;SDS011;12054;53.662;10.126;2023-08-06T04:42:23;6.72;;;3.70;;
23747;SDS011;12054;53.662;10.126;2023-08-06T04:44:49;4.47;;;3.95;;
23747;SDS011;12054;53.662;10.126;2023-08-06T04:47:15;5.05;;;3.75;;
23747;SDS011;12054;53.662;10.126;2023-08-06T04:49:40;5.75;;;4.03;;
23747;SDS011;12054;53.662;10.126;2023-08-06T04:52:05;6.75;;;3.85;;
23747;SDS011;12054;53.662;10.126;2023-08-06T04:54:31;5.70;;;3.85;;
23747;SDS011;12054;53.662;10.126;2023-08-06T04:56:57;10.05;;;4.30;;
23747;SDS011;12054;53.662;10.126;2023-08-06T04:59:22;4.72;;;3.42;;
23747;SDS011;12054;53.662;10.126;2023-08-06T05:01:48;5.93;;;4.32;;
23747;SDS011;12054;53.662;10.126;2023-08-06T05:04:13;7.43;;;4.00;;
23747;SDS011;12054;53.662;10.126;2023-08-06T05:06:39;6.70;;;3.85;;
23747;SDS011;12054;53.662;10.126;2023-08-06T05:09:05;4.75;;;3.45;;
23747;SDS011;12054;53.662;10.126;2023-08-06T05:11:31;5.85;;;4.43;;
23747;SDS011;12054;53.662;10.126;2023-08-06T05:13:56;7.10;;;4.20;;
23747;SDS011;12054;53.662;10.126;2023-08-06T05:16:22;5.72;;;3.95;;
23747;SDS011;12054;53.662;10.126;2023-08-06T05:18:48;4.75;;;3.90;;
23747;SDS011;12054;53.662;10.126;2023-08-06T05:21:14;6.80;;;3.88;;
23747;SDS011;12054;53.662;10.126;2023-08-06T05:23:41;7.15;;;4.50;;
23747;SDS011;12054;53.662;10.126;2023-08-06T05:26:06;6.07;;;4.22;;
23747;SDS011;12054;53.662;10.126;2023-08-06T05:28:32;5.85;;;4.38;;
23747;SDS011;12054;53.662;10.126;2023-08-06T05:30:57;7.90;;;4.35;;
23747;SDS011;12054;53.662;10.126;2023-08-06T05:33:23;6.30;;;4.50;;
23747;SDS011;12054;53.662;10.126;2023-08-06T05:35:49;5.03;;;4.10;;
23747;SDS011;12054;53.662;10.126;2023-08-06T05:38:16;7.43;;;4.15;;
23747;SDS011;12054;53.662;10.126;2023-08-06T05:40:42;6.45;;;4.30;;
23747;SDS011;12054;53.662;10.126;2023-08-06T05:43:08;8.85;;;5.03;;
23747;SDS011;12054;53.662;10.126;2023-08-06T05:45:33;7.00;;;4.50;;
23747;SDS011;12054;53.662;10.126;2023-08-06T05:47:59;5.65;;;4.53;;
23747;SDS011;12054;53.662;10.126;2023-08-06T05:50:24;5.47;;;4.75;;
23747;SDS011;12054;53.662;10.126;2023-08-06T05:52:50;4.65;;;3.92;;
23747;SDS011;12054;53.662;10.126;2023-08-06T05:55:16;7.07;;;4.78;;
23747;SDS011;12054;53.662;10.126;2023-08-06T05:57:42;5.28;;;4.50;;
23747;SDS011;12054;53.662;10.126;2023-08-06T06:00:07;6.07;;;4.45;;
23747;SDS011;12054;53.662;10.126;2023-08-06T06:02:33;6.38;;;4.93;;
23747;SDS011;12054;53.662;10.126;2023-08-06T06:04:59;8.27;;;5.13;;
23747;SDS011;12054;53.662;10.126;2023-08-06T06:07:24;8.07;;;4.88;;
23747;SDS011;12054;53.662;10.126;2023-08-06T06:09:50;8.27;;;4.55;;
23747;SDS011;12054;53.662;10.126;2023-08-06T06:12:15;7.45;;;4.65;;
23747;SDS011;12054;53.662;10.126;2023-08-06T06:14:41;7.93;;;4.90;;
23747;SDS011;12054;53.662;10.126;2023-08-06T06:17:06;6.13;;;4.22;;
23747;SDS011;12054;53.662;10.126;2023-08-06T06:19:32;9.13;;;4.47;;
23747;SDS011;12054;53.662;10.126;2023-08-06T06:21:57;5.70;;;4.57;;
23747;SDS011;12054;53.662;10.126;2023-08-06T06:24:23;9.35;;;4.93;;
23747;SDS011;12054;53.662;10.126;2023-08-06T06:26:48;6.65;;;4.95;;
23747;SDS011;12054;53.662;10.126;2023-08-06T06:29:14;7.30;;;4.68;;
23747;SDS011;12054;53.662;10.126;2023-08-06T06:31:39;9.48;;;5.15;;
23747;SDS011;12054;53.662;10.126;2023-08-06T06:34:05;6.65;;;4.55;;
23747;SDS011;12054;53.662;10.126;2023-08-06T06:36:30;8.43;;;4.97;;
23747;SDS011;12054;53.662;10.126;2023-08-06T06:38:56;5.88;;;5.00;;
23747;SDS011;12054;53.662;10.126;2023-08-06T06:41:21;8.05;;;5.05;;
23747;SDS011;12054;53.662;10.126;2023-08-06T06:43:47;6.90;;;4.68;;
23747;SDS011;12054;53.662;10.126;2023-08-06T06:46:12;6.97;;;5.05;;
23747;SDS011;12054;53.662;10.126;2023-08-06T06:48:38;6.25;;;4.90;;
23747;SDS011;12054;53.662;10.126;2023-08-06T06:51:03;8.77;;;5.20;;
23747;SDS011;12054;53.662;10.126;2023-08-06T06:53:29;6.68;;;5.03;;
23747;SDS011;12054;53.662;10.126;2023-08-06T06:56:02;7.78;;;5.38;;
23747;SDS011;12054;53.662;10.126;2023-08-06T06:58:29;8.80;;;5.72;;
23747;SDS011;12054;53.662;10.126;2023-08-06T07:00:55;9.15;;;5.10;;
23747;SDS011;12054;53.662;10.126;2023-08-06T07:03:21;7.18;;;4.90;;
23747;SDS011;12054;53.662;10.126;2023-08-06T07:05:46;7.10;;;4.90;;
23747;SDS011;12054;53.662;10.126;2023-08-06T07:08:12;7.60;;;5.25;;
23747;SDS011;12054;53.662;10.126;2023-08-06T07:10:38;7.97;;;5.18;;
23747;SDS011;12054;53.662;10.126;2023-08-06T07:13:05;7.50;;;5.18;;
23747;SDS011;12054;53.662;10.126;2023-08-06T07:15:31;9.02;;;5.20;;
23747;SDS011;12054;53.662;10.126;2023-08-06T07:17:57;6.18;;;4.57;;
23747;SDS011;12054;53.662;10.126;2023-08-06T07:20:22;7.75;;;4.65;;
23747;SDS011;12054;53.662;10.126;2023-08-06T07:22:48;9.00;;;5.45;;
23747;SDS011;12054;53.662;10.126;2023-08-06T07:25:14;8.32;;;5.13;;
23747;SDS011;12054;53.662;10.126;2023-08-06T07:27:40;8.13;;;5.22;;
23747;SDS011;12054;53.662;10.126;2023-08-06T07:30:06;6.95;;;5.85;;
23747;SDS011;12054;53.662;10.126;2023-08-06T07:32:32;12.10;;;5.45;;
23747;SDS011;12054;53.662;10.126;2023-08-06T07:34:58;9.30;;;5.60;;
23747;SDS011;12054;53.662;10.126;2023-08-06T07:37:25;6.55;;;5.35;;
23747;SDS011;12054;53.662;10.126;2023-08-06T07:39:53;8.77;;;5.63;;
23747;SDS011;12054;53.662;10.126;2023-08-06T07:42:22;7.57;;;5.60;;
23747;SDS011;12054;53.662;10.126;2023-08-06T07:44:54;8.65;;;5.57;;
23747;SDS011;12054;53.662;10.126;2023-08-06T07:47:21;7.97;;;5.47;;
23747;SDS011;12054;53.662;10.126;2023-08-06T07:49:46;6.60;;;5.28;;
23747;SDS011;12054;53.662;10.126;2023-08-06T07:52:12;11.77;;;6.43;;
23747;SDS011;12054;53.662;10.126;2023-08-06T07:54:38;10.73;;;6.07;;
23747;SDS011;12054;53.662;10.126;2023-08-06T07:57:03;10.00;;;6.28;;
23747;SDS011;12054;53.662;10.126;2023-08-06T07:59:29;9.70;;;5.40;;
23747;SDS011;12054;53.662;10.126;2023-08-06T08:01:55;10.10;;;5.82;;
23747;SDS011;12054;53.662;10.126;2023-08-06T08:04:21;9.35;;;5.95;;
23747;SDS011;12054;53.662;10.126;2023-08-06T08:06:46;10.23;;;6.20;;
23747;SDS011;12054;53.662;10.126;2023-08-06T08:09:12;8.00;;;6.47;;
23747;SDS011;12054;53.662;10.126;2023-08-06T08:11:38;10.15;;;6.45;;
23747;SDS011;12054;53.662;10.126;2023-08-06T08:14:04;12.38;;;6.50;;
23747;SDS011;12054;53.662;10.126;2023-08-06T08:16:30;9.43;;;5.97;;
23747;SDS011;12054;53.662;10.126;2023-08-06T08:18:55;8.70;;;5.85;;
23747;SDS011;12054;53.662;10.126;2023-08-06T08:21:21;10.35;;;6.75;;
23747;SDS011;12054;53.662;10.126;2023-08-06T08:23:49;8.57;;;6.60;;
23747;SDS011;12054;53.662;10.126;2023-08-06T08:26:14;8.60;;;6.55;;
23747;SDS011;12054;53.662;10.126;2023-08-06T08:28:40;8.05;;;6.10;;
23747;SDS011;12054;53.662;10.126;2023-08-06T08:31:07;11.05;;;6.80;;
23747;SDS011;12054;53.662;10.126;2023-08-06T08:33:36;11.93;;;6.75;;
23747;SDS011;12054;53.662;10.126;2023-08-06T08:36:02;11.63;;;7.07;;
23747;SDS011;12054;53.662;10.126;2023-08-06T08:38:28;7.93;;;7.13;;
23747;SDS011;12054;53.662;10.126;2023-08-06T08:40:53;11.43;;;7.50;;
23747;SDS011;12054;53.662;10.126;2023-08-06T08:43:22;10.88;;;7.45;;
23747;SDS011;12054;53.662;10.126;2023-08-06T08:45:52;10.88;;;8.18;;
23747;SDS011;12054;53.662;10.126;2023-08-06T08:48:20;11.75;;;8.07;;
23747;SDS011;12054;53.662;10.126;2023-08-06T08:50:48;9.45;;;7.82;;
23747;SDS011;12054;53.662;10.126;2023-08-06T08:53:14;10.35;;;7.50;;
23747;SDS011;12054;53.662;10.126;2023-08-06T08:55:41;9.52;;;7.38;;
23747;SDS011;12054;53.662;10.126;2023-08-06T08:58:08;12.50;;;7.85;;
23747;SDS011;12054;53.662;10.126;2023-08-06T09:00:34;10.25;;;6.93;;
23747;SDS011;12054;53.662;10.126;2023-08-06T09:03:00;11.05;;;7.50;;
23747;SDS011;12054;53.662;10.126;2023-08-06T09:05:27;11.77;;;7.10;;
23747;SDS011;12054;53.662;10.126;2023-08-06T09:07:55;10.40;;;7.70;;
23747;SDS011;12054;53.662;10.126;2023-08-06T09:10:27;10.32;;;7.40;;
23747;SDS011;12054;53.662;10.126;2023-08-06T09:12:53;11.10;;;7.55;;
23747;SDS011;12054;53.662;10.126;2023-08-06T09:15:23;10.90;;;7.15;;
23747;SDS011;12054;53.662;10.126;2023-08-06T09:17:50;9.13;;;7.70;;
23747;SDS011;12054;53.662;10.126;2023-08-06T09:20:17;11.13;;;7.65;;
23747;SDS011;12054;53.662;10.126;2023-08-06T09:22:42;11.02;;;8.40;;
23747;SDS011;12054;53.662;10.126;2023-08-06T09:25:09;11.40;;;7.80;;
23747;SDS011;12054;53.662;10.126;2023-08-06T09:27:38;10.63;;;7.93;;
23747;SDS011;12054;53.662;10.126;2023-08-06T09:30:04;11.68;;;8.45;;
23747;SDS011;12054;53.662;10.126;2023-08-06T09:32:47;11.32;;;8.13;;
23747;SDS011;12054;53.662;10.126;2023-08-06T09:35:16;10.35;;;7.35;;
23747;SDS011;12054;53.662;10.126;2023-08-06T09:37:42;10.07;;;7.97;;
23747;SDS011;12054;53.662;10.126;2023-08-06T09:40:27;12.68;;;8.43;;
23747;SDS011;12054;53.662;10.126;2023-08-06T09:42:55;10.85;;;8.32;;
23747;SDS011;12054;53.662;10.126;2023-08-06T09:45:21;12.13;;;8.15;;
23747;SDS011;12054;53.662;10.126;2023-08-06T09:47:48;9.35;;;8.20;;
23747;SDS011;12054;53.662;10.126;2023-08-06T09:50:20;10.38;;;8.10;;
23747;SDS011;12054;53.662;10.126;2023-08-06T09:52:46;12.27;;;9.00;;
23747;SDS011;12054;53.662;10.126;2023-08-06T09:55:13;11.05;;;8.10;;
23747;SDS011;12054;53.662;10.126;2023-08-06T09:57:40;11.75;;;8.00;;
23747;SDS011;12054;53.662;10.126;2023-08-06T10:00:07;10.25;;;7.78;;
23747;SDS011;12054;53.662;10.126;2023-08-06T10:02:35;10.20;;;7.97;;
23747;SDS011;12054;53.662;10.126;2023-08-06T10:05:04;9.68;;;7.40;;
23747;SDS011;12054;53.662;10.126;2023-08-06T10:07:31;9.85;;;7.45;;
23747;SDS011;12054;53.662;10.126;2023-08-06T10:09:56;8.75;;;7.15;;
23747;SDS011;12054;53.662;10.126;2023-08-06T10:12:23;9.85;;;6.95;;
23747;SDS011;12054;53.662;10.126;2023-08-06T10:14:50;10.60;;;7.00;;
23747;SDS011;12054;53.662;10.126;2023-08-06T10:17:19;8.88;;;7.32;;
23747;SDS011;12054;53.662;10.126;2023-08-06T10:19:46;10.40;;;7.30;;
23747;SDS011;12054;53.662;10.126;2023-08-06T10:22:17;10.70;;;7.70;;
23747;SDS011;12054;53.662;10.126;2023-08-06T10:24:53;8.18;;;7.05;;
23747;SDS011;12054;53.662;10.126;2023-08-06T10:30:14;7.72;;;6.57;;
23747;SDS011;12054;53.662;10.126;2023-08-06T10:32:55;10.85;;;7.65;;
23747;SDS011;12054;53.662;10.126;2023-08-06T10:35:35;8.57;;;7.18;;
23747;SDS011;12054;53.662;10.126;2023-08-06T10:38:14;9.63;;;7.22;;
23747;SDS011;12054;53.662;10.126;2023-08-06T10:40:43;13.07;;;7.25;;
23747;SDS011;12054;53.662;10.126;2023-08-06T10:43:28;10.32;;;7.20;;
23747;SDS011;12054;53.662;10.126;2023-08-06T10:45:55;8.50;;;7.20;;
23747;SDS011;12054;53.662;10.126;2023-08-06T10:51:03;9.40;;;6.95;;
23747;SDS011;12054;53.662;10.126;2023-08-06T10:53:32;9.02;;;6.68;;
23747;SDS011;12054;53.662;10.126;2023-08-06T10:55:58;9.27;;;7.07;;
23747;SDS011;12054;53.662;10.126;2023-08-06T10:58:23;10.48;;;6.95;;
23747;SDS011;12054;53.662;10.126;2023-08-06T11:00:49;9.52;;;6.95;;
23747;SDS011;12054;53.662;10.126;2023-08-06T11:03:14;10.43;;;7.00;;
23747;SDS011;12054;53.662;10.126;2023-08-06T11:05:40;9.23;;;7.28;;
23747;SDS011;12054;53.662;10.126;2023-08-06T11:08:05;8.02;;;6.80;;
23747;SDS011;12054;53.662;10.126;2023-08-06T11:10:34;7.93;;;6.53;;
23747;SDS011;12054;53.662;10.126;2023-08-06T11:13:03;10.85;;;6.97;;
23747;SDS011;12054;53.662;10.126;2023-08-06T11:15:29;9.07;;;7.40;;
23747;SDS011;12054;53.662;10.126;2023-08-06T11:17:55;7.97;;;6.07;;
23747;SDS011;12054;53.662;10.126;2023-08-06T11:20:21;8.50;;;6.68;;
23747;SDS011;12054;53.662;10.126;2023-08-06T11:22:47;11.23;;;6.90;;
23747;SDS011;12054;53.662;10.126;2023-08-06T11:25:13;8.90;;;6.75;;
23747;SDS011;12054;53.662;10.126;2023-08-06T11:27:38;12.18;;;6.97;;
23747;SDS011;12054;53.662;10.126;2023-08-06T11:30:04;8.20;;;6.45;;
23747;SDS011;12054;53.662;10.126;2023-08-06T11:32:30;9.32;;;6.47;;
23747;SDS011;12054;53.662;10.126;2023-08-06T11:34:55;9.70;;;6.90;;
23747;SDS011;12054;53.662;10.126;2023-08-06T11:37:21;11.25;;;6.68;;
23747;SDS011;12054;53.662;10.126;2023-08-06T11:39:49;8.60;;;7.35;;
23747;SDS011;12054;53.662;10.126;2023-08-06T11:42:15;10.23;;;6.68;;
23747;SDS011;12054;53.662;10.126;2023-08-06T11:44:40;10.52;;;6.32;;
23747;SDS011;12054;53.662;10.126;2023-08-06T11:47:11;7.78;;;6.10;;
23747;SDS011;12054;53.662;10.126;2023-08-06T11:49:39;11.00;;;7.07;;
23747;SDS011;12054;53.662;10.126;2023-08-06T11:52:22;8.93;;;6.57;;
23747;SDS011;12054;53.662;10.126;2023-08-06T11:55:07;8.32;;;6.82;;
23747;SDS011;12054;53.662;10.126;2023-08-06T11:57:37;9.73;;;6.97;;
23747;SDS011;12054;53.662;10.126;2023-08-06T12:00:05;9.60;;;6.43;;
23747;SDS011;12054;53.662;10.126;2023-08-06T12:02:33;10.18;;;7.60;;
23747;SDS011;12054;53.662;10.126;2023-08-06T12:05:01;9.07;;;6.47;;
23747;SDS011;12054;53.662;10.126;2023-08-06T12:07:30;9.70;;;6.43;;
23747;SDS011;12054;53.662;10.126;2023-08-06T12:10:01;9.20;;;6.45;;
23747;SDS011;12054;53.662;10.126;2023-08-06T12:12:26;9.60;;;6.20;;
23747;SDS011;12054;53.662;10.126;2023-08-06T12:14:52;9.98;;;6.28;;
23747;SDS011;12054;53.662;10.126;2023-08-06T12:17:18;8.75;;;6.32;;
23747;SDS011;12054;53.662;10.126;2023-08-06T12:19:44;8.50;;;6.70;;
23747;SDS011;12054;53.662;10.126;2023-08-06T12:22:12;9.20;;;6.35;;
23747;SDS011;12054;53.662;10.126;2023-08-06T12:24:38;7.75;;;6.47;;
23747;SDS011;12054;53.662;10.126;2023-08-06T12:27:05;8.05;;;6.38;;
23747;SDS011;12054;53.662;10.126;2023-08-06T12:29:30;8.52;;;6.97;;
23747;SDS011;12054;53.662;10.126;2023-08-06T12:31:56;8.77;;;6.65;;
23747;SDS011;12054;53.662;10.126;2023-08-06T12:34:22;10.05;;;6.43;;
23747;SDS011;12054;53.662;10.126;2023-08-06T12:36:47;8.57;;;7.25;;
23747;SDS011;12054;53.662;10.126;2023-08-06T12:39:13;9.27;;;6.35;;
23747;SDS011;12054;53.662;10.126;2023-08-06T12:41:38;8.43;;;6.10;;
23747;SDS011;12054;53.662;10.126;2023-08-06T12:44:04;9.25;;;6.50;;
23747;SDS011;12054;53.662;10.126;2023-08-06T12:46:30;10.30;;;7.45;;
23747;SDS011;12054;53.662;10.126;2023-08-06T12:48:56;10.30;;;7.10;;
23747;SDS011;12054;53.662;10.126;2023-08-06T12:51:22;9.27;;;6.75;;
23747;SDS011;12054;53.662;10.126;2023-08-06T12:53:48;7.43;;;6.65;;
23747;SDS011;12054;53.662;10.126;2023-08-06T12:56:14;9.57;;;6.60;;
23747;SDS011;12054;53.662;10.126;2023-08-06T12:58:39;7.72;;;6.45;;
23747;SDS011;12054;53.662;10.126;2023-08-06T13:01:06;7.40;;;5.93;;
23747;SDS011;12054;53.662;10.126;2023-08-06T13:03:32;8.73;;;6.15;;
23747;SDS011;12054;53.662;10.126;2023-08-06T13:05:57;9.02;;;5.85;;
23747;SDS011;12054;53.662;10.126;2023-08-06T13:08:23;7.78;;;5.45;;
23747;SDS011;12054;53.662;10.126;2023-08-06T13:10:48;8.68;;;5.93;;
23747;SDS011;12054;53.662;10.126;2023-08-06T13:13:14;7.88;;;5.43;;
23747;SDS011;12054;53.662;10.126;2023-08-06T13:15:39;6.22;;;5.32;;
23747;SDS011;12054;53.662;10.126;2023-08-06T13:18:05;7.97;;;4.97;;
23747;SDS011;12054;53.662;10.126;2023-08-06T13:20:30;6.32;;;4.93;;
23747;SDS011;12054;53.662;10.126;2023-08-06T13:22:57;5.63;;;4.60;;
23747;SDS011;12054;53.662;10.126;2023-08-06T13:25:23;5.80;;;4.07;;
23747;SDS011;12054;53.662;10.126;2023-08-06T13:27:49;5.30;;;4.25;;
23747;SDS011;12054;53.662;10.126;2023-08-06T13:30:15;5.93;;;4.20;;
23747;SDS011;12054;53.662;10.126;2023-08-06T13:32:42;8.90;;;3.72;;
23747;SDS011;12054;53.662;10.126;2023-08-06T13:35:09;6.95;;;3.75;;
23747;SDS011;12054;53.662;10.126;2023-08-06T13:37:34;5.72;;;3.42;;
23747;SDS011;12054;53.662;10.126;2023-08-06T13:40:00;5.53;;;3.88;;
23747;SDS011;12054;53.662;10.126;2023-08-06T13:42:25;6.53;;;3.72;;
23747;SDS011;12054;53.662;10.126;2023-08-06T13:44:51;4.30;;;3.55;;
23747;SDS011;12054;53.662;10.126;2023-08-06T13:47:17;4.88;;;3.45;;
23747;SDS011;12054;53.662;10.126;2023-08-06T13:49:42;5.80;;;3.55;;
23747;SDS011;12054;53.662;10.126;2023-08-06T13:52:07;4.95;;;3.45;;
23747;SDS011;12054;53.662;10.126;2023-08-06T13:54:33;6.43;;;3.78;;
23747;SDS011;12054;53.662;10.126;2023-08-06T13:56:58;4.13;;;3.35;;
23747;SDS011;12054;53.662;10.126;2023-08-06T13:59:24;6.05;;;3.40;;
23747;SDS011;12054;53.662;10.126;2023-08-06T14:01:50;4.95;;;3.38;;
23747;SDS011;12054;53.662;10.126;2023-08-06T14:04:15;6.28;;;3.28;;
23747;SDS011;12054;53.662;10.126;2023-08-06T14:06:41;5.68;;;3.50;;
23747;SDS011;12054;53.662;10.126;2023-08-06T14:09:07;4.05;;;3.13;;
23747;SDS011;12054;53.662;10.126;2023-08-06T14:11:33;7.43;;;3.30;;
23747;SDS011;12054;53.662;10.126;2023-08-06T14:13:58;4.97;;;2.95;;
23747;SDS011;12054;53.662;10.126;2023-08-06T14:16:25;4.05;;;3.42;;
23747;SDS011;12054;53.662;10.126;2023-08-06T14:18:50;5.40;;;2.97;;
23747;SDS011;12054;53.662;10.126;2023-08-06T14:21:16;4.75;;;3.10;;
23747;SDS011;12054;53.662;10.126;2023-08-06T14:23:41;4.90;;;3.15;;
23747;SDS011;12054;53.662;10.126;2023-08-06T14:26:07;4.85;;;3.00;;
23747;SDS011;12054;53.662;10.126;2023-08-06T14:28:35;4.68;;;3.20;;
23747;SDS011;12054;53.662;10.126;2023-08-06T14:31:01;5.38;;;2.95;;
23747;SDS011;12054;53.662;10.126;2023-08-06T14:33:26;6.53;;;3.20;;
23747;SDS011;12054;53.662;10.126;2023-08-06T14:35:51;3.35;;;2.83;;
23747;SDS011;12054;53.662;10.126;2023-08-06T14:38:17;4.63;;;3.00;;
23747;SDS011;12054;53.662;10.126;2023-08-06T14:40:43;6.47;;;3.35;;